Hovedside
METAR-TAF:

METAR-TAF

Lufthavner :

Røros lufthavn

Røros, Norge

breddegrad: 62-35N, lengdegrad: 011-21E, høyde over havet: 626 m

Gjeldene værobservasjon

Denne rapporten ble laget for 24 minutter siden, klokken 03:50 UTC
Vind 10 kt fra Vest-nordvest, skiftende mellom Vest og Nord-nordvest
Temperatur 6°C
Luftfuktighet 45%
Trykk 1011 hPa
Sikt 10 km eller mer

METAR: ENRO 230350Z AUTO 30010KT 270V330 9999NDV OVC048/// 06/M05 Q1011

Tid: 06:14 (04:14 UTC)

Varsel

Denne rapporten ble laget for 17 timer og 14 minutter siden, klokken 11:00 UTC
Varsel gyldig fra 22. klokken 12 UTC til 22. klokken 18 UTC
Vind 15 kt fra Nord
Sikt 10 km eller mer
Få skyer i en høyde av 1200 ft
Brutte skyer i en høyde av 2000 ft
lette regnbyger
Midlertidig
fra 22. klokken 12 UTC til 22. klokken 18 UTC
Vind 20 kt fra Nord-nordvest med vindkast opp mot 30 kt

TAF: ENRO 221100Z 2212/2218 35015KT 9999 -SHRA FEW012 BKN020 TEMPO 2212/2218 33020G30KT

Værobservasjoner og værvarsel for over 4000 flyplasser (METAR- og TAF-rapporter).

Tilgjengelige stasjoner er representert av de røde og gule prikkene på kartet.

Hold musepekeren over prikken for å se navnet på stasjonen.

Klikk så for å se værobservasjoner og -varsler.

For å forandre kartet kan du klikke på den grønne knappen med svart kryss for å zoome inn, på den grønne knappen med strek for å zoome ut, eller på de grønne pilene for å se tilstøtende kart.


METAR-TAF: